ZBAA/PEK METAR and TAF weather

Enter ICAO airport designator
Station Type Date Time Source
ZBAA METAR 2020/07/04 09:00 UTC NOAA

ZBAA 040900Z 18005MPS 150V210 CAVOK 30/19 Q1001 NOSIG


Station Type Date Time Source
ZBAA Decoded METAR 2020/07/04 09:00 UTC NOAA

Beijing, China (ZBAA) 39-56N 116-17E 55M
Jul 04, 2020 - 05:00 AM EDT / 2020.07.04 0900 UTC
Wind: from the S (180 degrees) at 11 MPH (10 KT) (direction variable):0
Visibility: greater than 7 mile(s):0
Temperature: 86 F (30 C)
Dew Point: 66 F (19 C)
Relative Humidity: 51%
Pressure (altimeter): 29.56 in. Hg (1001 hPa)
ob: ZBAA 040900Z 18005MPS 150V210 CAVOK 30/19 Q1001 NOSIG
cycle: 9

Station Type Date Time Source
ZBAA TAF 2020/07/04 06:05 UTC NOAA

TAF ZBAA 040302Z 0406/0506 18004MPS 6000 NSC TX29/0407Z TN22/0421Z
TEMPO 0411/0416 -TSRA FEW040CB BKN040

Example: see airport list